createdAt,value
2019-01-13T00:01:43.671Z,4.73
2019-01-13T00:04:11.575Z,4.85
2019-01-13T00:06:40.139Z,4.88
2019-01-13T00:09:08.258Z,4.89
2019-01-13T00:11:36.784Z,4.86
2019-01-13T00:14:05.324Z,4.88
2019-01-13T00:16:35.709Z,4.77
2019-01-13T00:19:04.962Z,4.86
2019-01-13T00:21:32.873Z,4.74
2019-01-13T00:24:00.869Z,4.83
2019-01-13T00:26:29.507Z,4.39
2019-01-13T00:28:57.942Z,4.84
2019-01-13T00:31:26.212Z,4.84
2019-01-13T00:33:54.254Z,4.82
2019-01-13T00:36:23.755Z,4.83
2019-01-13T00:38:52.534Z,4.85
2019-01-13T00:41:21.745Z,4.85
2019-01-13T00:46:31.304Z,4.85
2019-01-13T00:49:01.056Z,4.59
2019-01-13T00:51:29.628Z,4.87
2019-01-13T00:53:58.311Z,4.86
2019-01-13T00:56:27.084Z,4.85
2019-01-13T00:58:55.978Z,4.70
2019-01-13T01:01:24.627Z,4.81
2019-01-13T01:03:53.071Z,4.64
2019-01-13T01:06:21.187Z,4.75
2019-01-13T01:08:49.890Z,4.73
2019-01-13T01:11:18.051Z,4.72
2019-01-13T01:13:46.297Z,4.73
2019-01-13T01:16:14.945Z,4.72
2019-01-13T01:18:44.376Z,4.70
2019-01-13T01:21:12.830Z,4.47
2019-01-13T01:23:42.814Z,4.73
2019-01-13T01:26:11.105Z,4.51
2019-01-13T01:28:39.174Z,4.29
2019-01-13T01:31:07.849Z,4.77
2019-01-13T01:33:35.633Z,4.79
2019-01-13T01:36:05.061Z,4.77
2019-01-13T01:38:33.866Z,4.76
2019-01-13T01:41:02.340Z,4.74
2019-01-13T01:43:30.937Z,4.72
2019-01-13T01:45:59.428Z,4.71
2019-01-13T01:48:27.595Z,4.69
2019-01-13T01:50:55.614Z,4.64
2019-01-13T01:53:25.413Z,4.64
2019-01-13T01:55:53.924Z,4.66
2019-01-13T01:58:22.230Z,4.68
2019-01-13T02:00:51.145Z,4.71
2019-01-13T02:03:20.063Z,4.62
2019-01-13T02:05:48.744Z,4.76
2019-01-13T02:08:17.351Z,4.77
2019-01-13T02:10:46.223Z,4.50
2019-01-13T02:13:14.441Z,4.50
2019-01-13T02:15:42.938Z,4.78
2019-01-13T02:18:11.374Z,4.80
2019-01-13T02:20:39.956Z,4.81
2019-01-13T02:23:09.122Z,4.82
2019-01-13T02:25:38.846Z,4.79
2019-01-13T02:28:06.988Z,4.80
2019-01-13T02:30:35.505Z,4.64
2019-01-13T02:33:03.772Z,4.77
2019-01-13T02:35:31.695Z,4.74
2019-01-13T02:37:59.930Z,4.76
2019-01-13T02:40:27.775Z,4.78
2019-01-13T02:42:56.160Z,4.79
2019-01-13T02:45:27.284Z,4.81
2019-01-13T02:47:55.680Z,4.83
2019-01-13T02:50:23.643Z,4.85
2019-01-13T02:52:52.279Z,4.86
2019-01-13T02:55:20.302Z,4.87
2019-01-13T02:57:48.391Z,4.75
2019-01-13T03:00:18.825Z,4.89
2019-01-13T03:02:47.097Z,4.91
2019-01-13T03:05:15.423Z,4.92
2019-01-13T03:07:43.726Z,4.92
2019-01-13T03:10:15.673Z,4.94
2019-01-13T03:12:43.587Z,4.92
2019-01-13T03:15:19.498Z,4.75
2019-01-13T03:17:40.678Z,4.94
2019-01-13T03:20:09.314Z,4.94
2019-01-13T03:22:37.859Z,4.97
2019-01-13T03:25:07.979Z,4.97
2019-01-13T03:27:35.746Z,4.98
2019-01-13T03:30:05.084Z,4.96
2019-01-13T03:32:33.198Z,4.97
2019-01-13T03:35:01.382Z,4.51
2019-01-13T03:37:29.611Z,4.98
2019-01-13T03:39:57.410Z,5.00
2019-01-13T03:42:26.305Z,4.99
2019-01-13T03:44:54.974Z,4.99
2019-01-13T03:47:24.713Z,5.01
2019-01-13T03:49:53.662Z,4.77
2019-01-13T03:52:24.955Z,5.05
2019-01-13T03:54:53.879Z,5.06
2019-01-13T03:57:21.899Z,5.07
2019-01-13T03:59:49.825Z,5.08
2019-01-13T04:02:17.953Z,4.87
2019-01-13T04:04:46.148Z,5.10
2019-01-13T04:07:14.123Z,5.10
2019-01-13T04:09:42.130Z,4.89
2019-01-13T04:12:10.390Z,5.15
2019-01-13T04:14:39.040Z,5.18
2019-01-13T04:17:07.070Z,4.71
2019-01-13T04:19:34.999Z,5.10
2019-01-13T04:22:03.341Z,5.21
2019-01-13T04:24:31.597Z,5.23
2019-01-13T04:26:59.563Z,5.25
2019-01-13T04:29:28.032Z,5.26
2019-01-13T04:31:55.747Z,5.28
2019-01-13T04:34:23.429Z,5.29
2019-01-13T04:36:51.916Z,5.31
2019-01-13T04:39:19.947Z,5.19
2019-01-13T04:41:47.890Z,5.31
2019-01-13T04:44:16.557Z,4.96
2019-01-13T04:46:44.391Z,5.33
2019-01-13T04:49:12.520Z,5.20
2019-01-13T04:51:40.657Z,4.97
2019-01-13T04:54:08.594Z,5.33
2019-01-13T04:56:36.623Z,5.34
2019-01-13T04:59:04.925Z,5.22
2019-01-13T05:01:34.876Z,5.22
2019-01-13T05:04:01.328Z,5.35
2019-01-13T05:06:29.713Z,5.36
2019-01-13T05:08:57.631Z,5.36
2019-01-13T05:11:25.602Z,5.14
2019-01-13T05:13:54.155Z,5.39
2019-01-13T05:16:22.056Z,5.26
2019-01-13T05:18:49.868Z,5.14
2019-01-13T05:21:18.180Z,5.24
2019-01-13T05:23:46.010Z,5.02
2019-01-13T05:26:14.370Z,5.05
2019-01-13T05:28:43.028Z,5.39
2019-01-13T05:31:11.114Z,4.95
2019-01-13T05:33:39.267Z,5.07
2019-01-13T05:36:07.211Z,5.38
2019-01-13T05:38:35.454Z,5.41
2019-01-13T05:41:03.633Z,5.41
2019-01-13T05:43:31.737Z,5.40
2019-01-13T05:46:00.648Z,5.17
2019-01-13T05:48:29.348Z,5.40
2019-01-13T05:50:57.726Z,5.39
2019-01-13T05:53:25.636Z,5.38
2019-01-13T05:55:53.564Z,5.36
2019-01-13T05:58:21.542Z,5.10
2019-01-13T06:00:49.575Z,5.26
2019-01-13T06:03:18.604Z,5.03
2019-01-13T06:08:20.362Z,5.26
2019-01-13T06:10:49.238Z,5.39
2019-01-13T06:13:17.144Z,5.39
2019-01-13T06:15:46.286Z,5.41
2019-01-13T06:18:14.822Z,5.05
2019-01-13T06:20:42.765Z,5.41
2019-01-13T06:23:11.563Z,5.42
2019-01-13T06:25:39.710Z,5.43
2019-01-13T06:28:08.103Z,5.42
2019-01-13T06:30:36.692Z,5.44
2019-01-13T06:33:04.884Z,5.43
2019-01-13T06:35:33.044Z,5.30
2019-01-13T06:38:01.129Z,5.40
2019-01-13T06:40:29.343Z,5.27
2019-01-13T06:42:57.303Z,5.35
2019-01-13T06:45:26.063Z,5.13
2019-01-13T06:47:55.563Z,5.00
2019-01-13T06:50:24.616Z,5.34
2019-01-13T06:52:52.531Z,4.98
2019-01-13T06:55:20.664Z,5.21
2019-01-13T06:57:48.865Z,5.32
2019-01-13T07:00:22.083Z,5.19
2019-01-13T07:02:54.043Z,5.34
2019-01-13T07:05:22.060Z,5.33
2019-01-13T07:07:50.143Z,5.32
2019-01-13T07:10:18.830Z,5.33
2019-01-13T07:12:46.894Z,5.33
2019-01-13T07:15:15.607Z,5.31
2019-01-13T07:17:44.224Z,5.32
2019-01-13T07:20:14.077Z,5.21
2019-01-13T07:22:43.078Z,4.64
2019-01-13T07:25:11.260Z,5.33
2019-01-13T07:27:39.945Z,5.26
2019-01-13T07:30:17.147Z,5.40
2019-01-13T07:32:45.761Z,5.19
2019-01-13T07:35:14.165Z,5.39
2019-01-13T07:37:42.412Z,5.45
2019-01-13T07:40:14.022Z,5.46
2019-01-13T07:42:42.222Z,5.47
2019-01-13T07:45:11.710Z,5.49
2019-01-13T07:47:40.609Z,5.37
2019-01-13T07:50:09.985Z,5.27
2019-01-13T07:52:40.131Z,5.17
2019-01-13T07:55:11.855Z,5.51
2019-01-13T07:57:41.182Z,5.40
2019-01-13T08:00:14.453Z,5.48
2019-01-13T08:02:43.162Z,5.52
2019-01-13T08:05:11.342Z,5.50
2019-01-13T08:07:39.591Z,5.56
2019-01-13T08:10:09.960Z,5.58
2019-01-13T08:12:38.971Z,5.62
2019-01-13T08:15:07.850Z,5.62
2019-01-13T08:17:37.782Z,5.65
2019-01-13T08:20:08.190Z,5.64
2019-01-13T08:22:35.880Z,5.65
2019-01-13T08:25:04.996Z,5.65
2019-01-13T08:27:32.698Z,4.98
2019-01-13T08:30:00.935Z,5.69
2019-01-13T08:32:29.035Z,4.55
2019-01-13T08:34:57.130Z,5.52
2019-01-13T08:37:24.914Z,5.74
2019-01-13T08:39:54.304Z,5.75
2019-01-13T08:42:22.922Z,5.78
2019-01-13T08:44:50.747Z,5.81
2019-01-13T08:47:19.027Z,5.08
2019-01-13T08:49:53.141Z,4.54
2019-01-13T08:52:20.873Z,5.81
2019-01-13T08:54:54.292Z,5.69
2019-01-13T08:57:22.760Z,5.81
2019-01-13T09:00:00.929Z,4.31
2019-01-13T09:02:32.313Z,5.81
2019-01-13T09:05:01.496Z,5.71
2019-01-13T09:07:30.277Z,5.70
2019-01-13T09:09:58.727Z,5.23
2019-01-13T09:12:27.429Z,5.37
2019-01-13T09:14:57.614Z,5.85
2019-01-13T09:17:25.645Z,5.85
2019-01-13T09:19:54.716Z,5.04
2019-01-13T09:22:23.085Z,5.83
2019-01-13T09:24:56.941Z,5.84
2019-01-13T09:27:25.133Z,5.59
2019-01-13T09:29:56.473Z,5.82
2019-01-13T09:32:24.837Z,5.82
2019-01-13T09:34:54.391Z,5.82
2019-01-13T09:37:22.982Z,5.81
2019-01-13T09:39:51.440Z,5.84
2019-01-13T09:42:27.613Z,5.84
2019-01-13T09:44:55.560Z,5.84
2019-01-13T09:47:25.418Z,5.86
2019-01-13T09:49:55.942Z,5.30
2019-01-13T09:52:24.773Z,5.87
2019-01-13T09:54:52.582Z,5.89
2019-01-13T09:57:20.371Z,5.89
2019-01-13T09:59:51.313Z,4.71
2019-01-13T10:02:23.306Z,5.89
2019-01-13T10:04:51.370Z,5.91
2019-01-13T10:07:23.919Z,5.91
2019-01-13T10:09:52.159Z,5.92
2019-01-13T10:12:20.114Z,5.91
2019-01-13T10:14:51.787Z,5.90
2019-01-13T10:17:20.665Z,5.92
2019-01-13T10:19:52.552Z,4.85
2019-01-13T10:22:20.476Z,5.93
2019-01-13T10:24:53.640Z,4.40
2019-01-13T10:27:32.739Z,4.57
2019-01-13T10:30:06.804Z,6.00
2019-01-13T10:32:35.676Z,5.08
2019-01-13T10:35:09.765Z,5.65
2019-01-13T10:37:38.789Z,6.03
2019-01-13T10:40:09.218Z,6.07
2019-01-13T10:42:37.126Z,6.08
2019-01-13T10:45:05.759Z,6.10
2019-01-13T10:47:33.989Z,6.13
2019-01-13T10:50:03.882Z,5.69
2019-01-13T10:52:31.684Z,5.92
2019-01-13T10:55:00.163Z,6.13
2019-01-13T10:57:28.234Z,6.12
2019-01-13T10:59:56.108Z,6.12
2019-01-13T11:02:24.892Z,6.11
2019-01-13T11:04:53.047Z,6.08
2019-01-13T11:07:22.427Z,6.09
2019-01-13T11:09:51.059Z,6.09
2019-01-13T11:12:18.878Z,6.12
2019-01-13T11:14:46.948Z,6.12
2019-01-13T11:17:15.861Z,6.10
2019-01-13T11:19:44.046Z,6.13
2019-01-13T11:22:13.900Z,6.15
2019-01-13T11:24:42.323Z,6.04
2019-01-13T11:27:10.416Z,6.20
2019-01-13T11:29:39.863Z,6.23
2019-01-13T11:32:08.328Z,6.24
2019-01-13T11:34:36.546Z,6.26
2019-01-13T11:37:04.833Z,6.27
2019-01-13T11:39:33.583Z,5.96
2019-01-13T11:42:01.506Z,6.05
2019-01-13T11:44:29.151Z,6.27
2019-01-13T11:46:56.895Z,6.29
2019-01-13T11:49:24.671Z,6.28
2019-01-13T11:51:53.051Z,6.27
2019-01-13T11:54:21.263Z,6.30
2019-01-13T11:56:49.396Z,6.29
2019-01-13T11:59:17.412Z,6.32
2019-01-13T12:01:45.994Z,6.32
2019-01-13T12:04:13.726Z,6.33
2019-01-13T12:06:42.816Z,6.34
2019-01-13T12:09:10.681Z,6.33
2019-01-13T12:11:38.753Z,6.35
2019-01-13T12:14:06.875Z,6.36
2019-01-13T12:16:35.799Z,6.38
2019-01-13T12:19:06.706Z,6.37
2019-01-13T12:21:36.114Z,6.43
2019-01-13T12:24:04.435Z,6.48
2019-01-13T12:26:32.838Z,6.52
2019-01-13T12:29:01.343Z,6.55
2019-01-13T12:31:30.221Z,6.58
2019-01-13T12:33:57.953Z,6.59
2019-01-13T12:36:26.127Z,6.60
2019-01-13T12:38:54.149Z,6.62
2019-01-13T12:41:23.830Z,6.05
2019-01-13T12:43:52.292Z,6.54
2019-01-13T12:46:20.454Z,6.65
2019-01-13T12:48:48.363Z,6.67
2019-01-13T12:51:16.597Z,6.68
2019-01-13T12:53:45.033Z,6.72
2019-01-13T12:56:13.110Z,6.40
2019-01-13T12:58:41.140Z,6.54
2019-01-13T13:01:08.862Z,6.80
2019-01-13T13:03:36.535Z,6.59
2019-01-13T13:06:04.812Z,6.86
2019-01-13T13:08:34.558Z,6.88
2019-01-13T13:11:03.497Z,6.89
2019-01-13T13:13:31.950Z,6.91
2019-01-13T13:16:00.223Z,6.94
2019-01-13T13:18:31.017Z,6.95
2019-01-13T13:20:59.815Z,6.95
2019-01-13T13:23:29.277Z,6.97
2019-01-13T13:25:57.431Z,7.01
2019-01-13T13:28:28.654Z,7.02
2019-01-13T13:30:58.054Z,7.05
2019-01-13T13:33:26.608Z,7.08
2019-01-13T13:35:55.178Z,7.16
2019-01-13T13:38:23.670Z,7.23
2019-01-13T13:40:51.562Z,7.28
2019-01-13T13:43:19.981Z,7.20
2019-01-13T13:45:48.237Z,7.31
2019-01-13T13:48:16.260Z,7.10
2019-01-13T13:50:47.243Z,6.62
2019-01-13T13:53:15.228Z,7.41
2019-01-13T13:55:45.441Z,7.44
2019-01-13T13:58:14.055Z,7.47
2019-01-13T14:00:45.687Z,7.49
2019-01-13T14:03:17.219Z,7.51
2019-01-13T14:05:50.524Z,7.19
2019-01-13T14:08:18.331Z,7.51
2019-01-13T14:10:47.112Z,7.50
2019-01-13T14:13:27.383Z,7.51
2019-01-13T14:15:55.331Z,6.77
2019-01-13T14:18:24.294Z,7.56
2019-01-13T14:20:53.232Z,7.59
2019-01-13T14:23:24.219Z,7.57
2019-01-13T14:25:52.095Z,7.60
2019-01-13T14:28:25.049Z,7.62
2019-01-13T14:30:54.003Z,6.82
2019-01-13T14:33:26.286Z,7.62
2019-01-13T14:35:56.268Z,7.64
2019-01-13T14:38:25.679Z,7.65
2019-01-13T14:40:53.923Z,7.66
2019-01-13T14:43:22.190Z,7.57
2019-01-13T14:45:51.355Z,7.69
2019-01-13T14:48:23.890Z,6.94
2019-01-13T14:50:53.180Z,7.68
2019-01-13T14:53:24.875Z,7.34
2019-01-13T14:55:53.252Z,7.70
2019-01-13T14:58:21.411Z,7.61
2019-01-13T15:00:49.177Z,7.63
2019-01-13T15:03:20.767Z,7.79
2019-01-13T15:05:50.851Z,6.93
2019-01-13T15:08:21.233Z,7.82
2019-01-13T15:10:49.852Z,7.83
2019-01-13T15:13:18.760Z,7.85
2019-01-13T15:15:47.477Z,7.86
2019-01-13T15:18:17.168Z,7.89
2019-01-13T15:20:45.605Z,7.92
2019-01-13T15:23:13.591Z,7.94
2019-01-13T15:25:41.689Z,7.81
2019-01-13T15:28:12.723Z,6.03
2019-01-13T15:30:40.609Z,7.92
2019-01-13T15:33:09.418Z,7.92
2019-01-13T15:35:38.141Z,7.94
2019-01-13T15:38:08.196Z,7.95
2019-01-13T15:40:37.016Z,7.95
2019-01-13T15:43:05.356Z,7.96
2019-01-13T15:45:34.715Z,7.99
2019-01-13T15:48:02.698Z,7.99
2019-01-13T15:50:30.975Z,8.02
2019-01-13T15:53:05.471Z,7.69
2019-01-13T15:55:34.403Z,8.04
2019-01-13T15:58:03.785Z,8.06
2019-01-13T16:00:35.143Z,8.06
2019-01-13T16:03:04.492Z,8.05
2019-01-13T16:05:33.028Z,8.02
2019-01-13T16:08:01.556Z,8.01
2019-01-13T16:10:30.368Z,7.45
2019-01-13T16:12:58.441Z,7.66
2019-01-13T16:15:34.120Z,8.00
2019-01-13T16:18:01.120Z,7.86
2019-01-13T16:20:35.457Z,7.86
2019-01-13T16:23:07.085Z,7.95
2019-01-13T16:25:39.474Z,7.83
2019-01-13T16:28:07.844Z,7.80
2019-01-13T16:30:43.556Z,7.95
2019-01-13T16:33:11.846Z,7.94
2019-01-13T16:35:42.219Z,7.72
2019-01-13T16:38:11.961Z,7.94
2019-01-13T16:40:41.406Z,7.53
2019-01-13T16:43:09.703Z,7.88
2019-01-13T16:45:39.910Z,7.77
2019-01-13T16:48:08.558Z,7.99
2019-01-13T16:50:38.249Z,7.91
2019-01-13T16:53:08.090Z,8.03
2019-01-13T16:55:41.872Z,8.04
2019-01-13T16:58:11.779Z,8.06
2019-01-13T17:00:42.020Z,7.52
2019-01-13T17:03:11.961Z,8.08
2019-01-13T17:05:45.159Z,8.12
2019-01-13T17:08:14.222Z,8.14
2019-01-13T17:10:42.620Z,8.16
2019-01-13T17:13:10.495Z,8.18
2019-01-13T17:15:39.283Z,7.39
2019-01-13T17:18:10.059Z,8.16
2019-01-13T17:20:38.081Z,8.17
2019-01-13T17:23:06.100Z,8.19
2019-01-13T17:25:35.200Z,8.20
2019-01-13T17:28:03.150Z,8.16
2019-01-13T17:30:34.129Z,8.20
2019-01-13T17:33:03.583Z,8.04
2019-01-13T17:35:31.629Z,8.11
2019-01-13T17:37:59.600Z,8.11
2019-01-13T17:40:29.069Z,8.09
2019-01-13T17:42:56.914Z,8.08
2019-01-13T17:45:28.963Z,8.09
2019-01-13T17:47:57.619Z,8.07
2019-01-13T17:50:25.391Z,8.05
2019-01-13T17:52:56.105Z,8.04
2019-01-13T17:55:25.427Z,7.91
2019-01-13T17:57:53.815Z,8.04
2019-01-13T18:00:39.699Z,8.02
2019-01-13T18:03:09.497Z,8.00
2019-01-13T18:05:37.412Z,7.99
2019-01-13T18:08:11.173Z,7.92
2019-01-13T18:10:39.863Z,7.98
2019-01-13T18:13:09.071Z,7.98
2019-01-13T18:15:36.901Z,8.00
2019-01-13T18:18:07.255Z,8.02
2019-01-13T18:20:35.153Z,8.01
2019-01-13T18:23:03.658Z,8.00
2019-01-13T18:25:32.119Z,8.00
2019-01-13T18:27:59.983Z,7.99
2019-01-13T18:30:27.769Z,7.55
2019-01-13T18:32:57.044Z,8.03
2019-01-13T18:35:25.668Z,8.04
2019-01-13T18:37:53.602Z,8.04
2019-01-13T18:40:21.974Z,8.02
2019-01-13T18:42:50.312Z,8.03
2019-01-13T18:45:18.237Z,8.02
2019-01-13T18:47:46.271Z,7.84
2019-01-13T18:50:16.848Z,8.01
2019-01-13T18:52:47.583Z,7.99
2019-01-13T18:55:15.823Z,7.88
2019-01-13T18:57:44.331Z,8.01
2019-01-13T19:00:17.496Z,7.98
2019-01-13T19:02:47.794Z,7.99
2019-01-13T19:05:18.680Z,7.96
2019-01-13T19:07:46.916Z,7.68
2019-01-13T19:10:21.723Z,7.48
2019-01-13T19:12:51.649Z,7.76
2019-01-13T19:15:19.861Z,7.50
2019-01-13T19:17:48.243Z,7.65
2019-01-13T19:20:21.764Z,7.61
2019-01-13T19:22:53.181Z,7.59
2019-01-13T19:25:28.006Z,7.64
2019-01-13T19:27:56.597Z,7.65
2019-01-13T19:30:25.408Z,7.29
2019-01-13T19:32:54.271Z,6.94
2019-01-13T19:35:22.118Z,6.59
2019-01-13T19:37:50.719Z,6.35
2019-01-13T19:40:19.052Z,6.27
2019-01-13T19:42:47.602Z,6.17
2019-01-13T19:45:17.161Z,6.09
2019-01-13T19:47:46.338Z,6.02
2019-01-13T19:50:21.898Z,5.70
2019-01-13T19:52:51.089Z,5.79
2019-01-13T19:55:24.450Z,5.88
2019-01-13T19:57:53.926Z,5.70
2019-01-13T20:00:29.616Z,5.82
2019-01-13T20:03:01.298Z,5.15
2019-01-13T20:05:30.608Z,5.79
2019-01-13T20:07:58.761Z,5.80
2019-01-13T20:10:26.991Z,5.82
2019-01-13T20:12:55.124Z,5.84
2019-01-13T20:15:23.486Z,5.08
2019-01-13T20:17:55.955Z,5.84
2019-01-13T20:20:23.875Z,5.64
2019-01-13T20:22:52.004Z,5.88
2019-01-13T20:25:22.330Z,5.90
2019-01-13T20:27:50.204Z,5.89
2019-01-13T20:30:20.546Z,5.80
2019-01-13T20:32:48.420Z,5.93
2019-01-13T20:35:19.276Z,5.93
2019-01-13T20:37:45.326Z,5.80
2019-01-13T20:40:14.783Z,5.93
2019-01-13T20:42:42.848Z,5.95
2019-01-13T20:45:16.455Z,5.49
2019-01-13T20:47:44.425Z,5.99
2019-01-13T20:50:13.903Z,6.01
2019-01-13T20:52:43.110Z,6.03
2019-01-13T20:55:11.744Z,6.02
2019-01-13T20:57:40.752Z,6.01
2019-01-13T21:00:14.202Z,6.00
2019-01-13T21:02:42.092Z,6.01
2019-01-13T21:05:10.933Z,6.01
2019-01-13T21:07:39.609Z,5.97
2019-01-13T21:10:08.943Z,5.92
2019-01-13T21:12:37.109Z,5.96
2019-01-13T21:15:07.203Z,6.04
2019-01-13T21:17:35.836Z,6.07
2019-01-13T21:20:05.704Z,6.08
2019-01-13T21:22:34.797Z,5.50
2019-01-13T21:25:03.113Z,6.02
2019-01-13T21:27:32.108Z,5.92
2019-01-13T21:30:02.041Z,6.18
2019-01-13T21:32:29.988Z,6.17
2019-01-13T21:34:57.737Z,6.16
2019-01-13T21:37:25.858Z,6.15
2019-01-13T21:39:53.838Z,6.14
2019-01-13T21:42:21.625Z,6.15
2019-01-13T21:44:49.483Z,6.08
2019-01-13T21:47:17.588Z,6.09
2019-01-13T21:49:46.796Z,5.89
2019-01-13T21:52:14.679Z,6.25
2019-01-13T21:54:43.204Z,6.20
2019-01-13T21:57:11.314Z,6.14
2019-01-13T21:59:39.791Z,5.47
2019-01-13T22:02:07.876Z,6.07
2019-01-13T22:04:35.641Z,6.07
2019-01-13T22:07:04.565Z,6.07
2019-01-13T22:09:32.928Z,6.08
2019-01-13T22:12:01.028Z,6.07
2019-01-13T22:14:29.881Z,6.06
2019-01-13T22:16:58.138Z,6.04
2019-01-13T22:19:26.038Z,6.05
2019-01-13T22:21:53.990Z,6.04
2019-01-13T22:24:21.929Z,6.04
2019-01-13T22:26:49.807Z,6.07
2019-01-13T22:29:17.910Z,6.08
2019-01-13T22:31:46.723Z,6.11
2019-01-13T22:34:14.574Z,6.11
2019-01-13T22:36:42.424Z,6.10
2019-01-13T22:39:10.314Z,6.13
2019-01-13T22:41:38.453Z,6.14
2019-01-13T22:44:06.473Z,5.90
2019-01-13T22:46:34.630Z,6.14
2019-01-13T22:49:03.059Z,6.02
2019-01-13T22:51:30.811Z,6.17
2019-01-13T22:53:58.531Z,6.18
2019-01-13T22:56:26.291Z,6.17
2019-01-13T22:58:58.510Z,6.19
2019-01-13T23:01:43.643Z,6.18
2019-01-13T23:04:13.083Z,6.17
2019-01-13T23:06:41.472Z,6.18
2019-01-13T23:09:10.295Z,6.16
2019-01-13T23:11:38.524Z,6.16
2019-01-13T23:14:06.907Z,6.17
2019-01-13T23:16:34.623Z,6.17
2019-01-13T23:19:02.376Z,6.19
2019-01-13T23:21:30.972Z,5.98
2019-01-13T23:23:59.029Z,6.11
2019-01-13T23:26:27.302Z,6.14
2019-01-13T23:28:55.760Z,6.16
2019-01-13T23:31:23.971Z,6.21
2019-01-13T23:33:52.054Z,6.25
2019-01-13T23:36:20.348Z,6.27
2019-01-13T23:38:48.038Z,6.27
2019-01-13T23:41:16.003Z,6.24
2019-01-13T23:43:44.407Z,6.28
2019-01-13T23:46:12.264Z,6.15
2019-01-13T23:48:39.980Z,6.24
2019-01-13T23:51:08.179Z,6.23
2019-01-13T23:53:35.878Z,6.22
2019-01-13T23:56:04.766Z,6.20
2019-01-13T23:58:32.793Z,6.22
